createdAt,value
2023-06-15T00:00:08.651Z,60.89
2023-06-15T00:01:13.087Z,60.94
2023-06-15T00:02:16.554Z,61.12
2023-06-15T00:03:19.147Z,61.31
2023-06-15T00:04:22.636Z,61.36
2023-06-15T00:05:24.878Z,61.37
2023-06-15T00:06:28.905Z,61.31
2023-06-15T00:07:31.339Z,61.31
2023-06-15T00:08:35.602Z,61.15
2023-06-15T00:09:37.845Z,60.88
2023-06-15T00:10:42.372Z,60.78
2023-06-15T00:11:44.783Z,60.75
2023-06-15T00:12:47.896Z,60.85
2023-06-15T00:13:50.072Z,61.13
2023-06-15T00:14:53.220Z,61.02
2023-06-15T00:15:55.679Z,60.93
2023-06-15T00:16:58.998Z,60.93
2023-06-15T00:18:01.196Z,61.11
2023-06-15T00:19:05.030Z,61.17
2023-06-15T00:20:09.359Z,61.25
2023-06-15T00:21:14.750Z,61.27
2023-06-15T00:22:16.920Z,61.30
2023-06-15T00:23:20.042Z,61.39
2023-06-15T00:24:22.226Z,61.30
2023-06-15T00:25:25.511Z,61.40
2023-06-15T00:26:29.040Z,61.50
2023-06-15T00:27:32.181Z,61.44
2023-06-15T00:28:34.504Z,61.83
2023-06-15T00:29:37.680Z,61.88
2023-06-15T00:30:39.828Z,61.87
2023-06-15T00:31:43.052Z,61.72
2023-06-15T00:32:45.856Z,61.59
2023-06-15T00:33:49.038Z,61.83
2023-06-15T00:34:51.230Z,61.92
2023-06-15T00:35:54.376Z,62.02
2023-06-15T00:36:56.557Z,61.85
2023-06-15T00:37:59.768Z,61.84
2023-06-15T00:39:02.026Z,61.74
2023-06-15T00:40:07.245Z,61.72
2023-06-15T00:41:09.747Z,61.60
2023-06-15T00:42:14.236Z,61.48
2023-06-15T00:43:16.813Z,61.46
2023-06-15T00:44:19.981Z,61.71
2023-06-15T00:45:22.220Z,61.52
2023-06-15T00:46:25.636Z,61.47
2023-06-15T00:47:28.318Z,61.38
2023-06-15T00:48:32.126Z,61.30
2023-06-15T00:49:34.429Z,61.29
2023-06-15T00:50:39.268Z,61.17
2023-06-15T00:51:41.625Z,61.17
2023-06-15T00:52:45.369Z,61.07
2023-06-15T00:53:47.757Z,61.05
2023-06-15T00:54:52.341Z,61.44
2023-06-15T00:55:54.688Z,61.41
2023-06-15T00:56:58.129Z,61.54
2023-06-15T00:58:02.609Z,61.53
2023-06-15T00:59:06.080Z,61.59
2023-06-15T01:00:11.396Z,61.61
2023-06-15T01:01:14.637Z,61.53
2023-06-15T01:02:17.749Z,61.69
2023-06-15T01:03:22.004Z,61.70
2023-06-15T01:04:25.799Z,61.71
2023-06-15T01:05:29.021Z,61.90
2023-06-15T01:06:33.376Z,61.86
2023-06-15T01:07:36.939Z,61.84
2023-06-15T01:08:39.772Z,62.06
2023-06-15T01:09:44.581Z,62.15
2023-06-15T01:10:46.942Z,62.12
2023-06-15T01:11:54.094Z,62.35
2023-06-15T01:12:58.472Z,62.37
2023-06-15T01:14:02.654Z,62.32
2023-06-15T01:15:06.766Z,62.49
2023-06-15T01:16:14.349Z,62.76
2023-06-15T01:17:24.864Z,62.46
2023-06-15T01:18:30.908Z,62.51
2023-06-15T01:19:55.046Z,62.50
2023-06-15T01:20:58.118Z,62.46
2023-06-15T01:22:10.111Z,62.26
2023-06-15T01:23:34.467Z,62.38
2023-06-15T01:24:38.033Z,62.42
2023-06-15T01:25:50.290Z,62.37
2023-06-15T01:26:55.499Z,62.46
2023-06-15T01:28:02.312Z,62.46
2023-06-15T01:29:04.908Z,62.50
2023-06-15T01:30:10.030Z,62.61
2023-06-15T01:31:13.839Z,62.66
2023-06-15T01:32:17.191Z,62.76
2023-06-15T01:33:19.518Z,62.84
2023-06-15T01:34:22.733Z,62.99
2023-06-15T01:35:24.895Z,62.85
2023-06-15T01:36:28.123Z,62.85
2023-06-15T01:37:30.330Z,63.00
2023-06-15T01:38:33.585Z,62.91
2023-06-15T01:39:35.844Z,63.05
2023-06-15T01:40:40.344Z,63.11
2023-06-15T01:41:42.604Z,63.09
2023-06-15T01:42:47.532Z,63.48
2023-06-15T01:43:50.178Z,63.49
2023-06-15T01:44:54.554Z,63.34
2023-06-15T01:45:57.745Z,63.27
2023-06-15T01:47:01.068Z,63.47
2023-06-15T01:48:03.979Z,63.61
2023-06-15T01:49:07.487Z,63.44
2023-06-15T01:50:10.882Z,63.26
2023-06-15T01:51:14.441Z,63.17
2023-06-15T01:52:17.085Z,62.93
2023-06-15T01:53:20.353Z,63.02
2023-06-15T01:54:22.680Z,63.10
2023-06-15T01:55:27.099Z,63.30
2023-06-15T01:56:30.420Z,63.50
2023-06-15T01:57:38.693Z,63.33
2023-06-15T01:58:43.786Z,63.29
2023-06-15T01:59:46.078Z,63.48
2023-06-15T02:00:49.312Z,63.32
2023-06-15T02:01:51.558Z,63.24
2023-06-15T02:02:54.888Z,63.31
2023-06-15T02:03:58.141Z,63.27
2023-06-15T02:05:00.579Z,63.46
2023-06-15T02:06:03.791Z,63.48
2023-06-15T02:07:06.210Z,63.54
2023-06-15T02:08:09.700Z,63.60
2023-06-15T02:09:12.158Z,63.67
2023-06-15T02:10:16.320Z,63.64
2023-06-15T02:11:19.930Z,63.58
2023-06-15T02:12:23.202Z,63.63
2023-06-15T02:13:25.432Z,63.74
2023-06-15T02:14:29.921Z,63.69
2023-06-15T02:15:32.112Z,63.53
2023-06-15T02:16:36.435Z,63.56
2023-06-15T02:17:41.020Z,63.45
2023-06-15T02:18:46.576Z,63.37
2023-06-15T02:19:49.042Z,63.28
2023-06-15T02:20:52.321Z,63.35
2023-06-15T02:21:54.829Z,63.51
2023-06-15T02:22:58.566Z,63.51
2023-06-15T02:24:00.797Z,63.62
2023-06-15T02:25:04.361Z,63.68
2023-06-15T02:26:07.045Z,63.30
2023-06-15T02:27:10.188Z,63.25
2023-06-15T02:28:12.460Z,63.19
2023-06-15T02:29:16.114Z,63.08
2023-06-15T02:30:19.687Z,62.94
2023-06-15T02:31:23.330Z,63.18
2023-06-15T02:32:33.126Z,63.36
2023-06-15T02:33:36.807Z,63.36
2023-06-15T02:34:39.311Z,63.46
2023-06-15T02:35:42.434Z,63.42
2023-06-15T02:36:44.816Z,63.37
2023-06-15T02:37:48.162Z,63.29
2023-06-15T02:38:50.437Z,63.17
2023-06-15T02:39:53.643Z,63.35
2023-06-15T02:40:56.141Z,63.38
2023-06-15T02:41:59.392Z,63.34
2023-06-15T02:43:01.665Z,63.27
2023-06-15T02:44:04.880Z,63.45
2023-06-15T02:45:08.766Z,63.29
2023-06-15T02:46:13.274Z,63.22
2023-06-15T02:47:15.512Z,63.25
2023-06-15T02:48:18.941Z,63.26
2023-06-15T02:49:21.120Z,63.26
2023-06-15T02:50:24.596Z,63.35
2023-06-15T02:51:26.868Z,63.30
2023-06-15T02:52:31.661Z,63.25
2023-06-15T02:53:33.856Z,63.34
2023-06-15T02:54:37.932Z,63.38
2023-06-15T02:55:42.445Z,63.33
2023-06-15T02:56:45.667Z,63.13
2023-06-15T02:57:47.946Z,62.90
2023-06-15T02:58:55.657Z,62.81
2023-06-15T02:59:58.257Z,62.84
2023-06-15T03:01:02.029Z,63.11
2023-06-15T03:02:06.049Z,63.31
2023-06-15T03:03:10.793Z,63.14
2023-06-15T03:04:14.992Z,63.08
2023-06-15T03:05:19.794Z,63.00
2023-06-15T03:06:22.346Z,63.27
2023-06-15T03:07:26.544Z,63.40
2023-06-15T03:08:32.943Z,63.25
2023-06-15T03:09:36.316Z,63.15
2023-06-15T03:10:38.508Z,62.98
2023-06-15T03:11:41.635Z,63.05
2023-06-15T03:12:43.797Z,63.52
2023-06-15T03:13:47.660Z,63.47
2023-06-15T03:14:51.607Z,63.51
2023-06-15T03:15:54.964Z,63.68
2023-06-15T03:16:57.142Z,63.67
2023-06-15T03:18:02.554Z,63.73
2023-06-15T03:19:04.903Z,63.67
2023-06-15T03:20:12.087Z,63.58
2023-06-15T03:21:15.830Z,63.71
2023-06-15T03:22:20.008Z,63.98
2023-06-15T03:23:22.251Z,63.87
2023-06-15T03:24:27.054Z,63.79
2023-06-15T03:25:30.844Z,63.99
2023-06-15T03:26:34.454Z,63.99
2023-06-15T03:27:36.656Z,64.17
2023-06-15T03:28:41.083Z,63.98
2023-06-15T03:29:43.344Z,63.99
2023-06-15T03:30:48.197Z,63.75
2023-06-15T03:31:51.714Z,63.81
2023-06-15T03:32:54.902Z,63.88
2023-06-15T03:33:58.471Z,63.88
2023-06-15T03:35:01.660Z,63.77
2023-06-15T03:36:04.398Z,63.95
2023-06-15T03:37:07.751Z,63.98
2023-06-15T03:38:09.951Z,63.89
2023-06-15T03:39:13.315Z,63.76
2023-06-15T03:40:15.437Z,63.94
2023-06-15T03:41:18.605Z,63.65
2023-06-15T03:42:20.733Z,63.36
2023-06-15T03:43:23.862Z,63.25
2023-06-15T03:44:26.218Z,63.39
2023-06-15T03:45:29.366Z,63.43
2023-06-15T03:46:31.648Z,63.58
2023-06-15T03:47:34.748Z,63.47
2023-06-15T03:48:37.706Z,63.52
2023-06-15T03:49:42.236Z,63.62
2023-06-15T03:50:44.464Z,63.72
2023-06-15T03:51:47.723Z,63.65
2023-06-15T03:52:49.864Z,63.46
2023-06-15T03:53:53.021Z,63.46
2023-06-15T03:54:55.180Z,63.64
2023-06-15T03:55:58.497Z,63.70
2023-06-15T03:57:00.681Z,63.60
2023-06-15T03:58:04.306Z,63.79
2023-06-15T03:59:06.491Z,63.70
2023-06-15T04:00:11.984Z,63.74
2023-06-15T04:01:14.217Z,63.90
2023-06-15T04:02:17.513Z,63.76
2023-06-15T04:03:19.895Z,63.88
2023-06-15T04:04:23.225Z,63.61
2023-06-15T04:05:26.866Z,63.78
2023-06-15T04:06:31.023Z,63.83
2023-06-15T04:07:34.185Z,64.06
2023-06-15T04:08:37.721Z,64.03
2023-06-15T04:09:40.013Z,63.80
2023-06-15T04:10:43.255Z,63.80
2023-06-15T04:11:45.723Z,63.88
2023-06-15T04:15:58.331Z,63.91
2023-06-15T04:17:01.460Z,63.87
2023-06-15T04:18:04.968Z,64.16
2023-06-15T04:19:08.591Z,63.88
2023-06-15T04:20:14.787Z,63.76
2023-06-15T04:21:19.071Z,63.84
2023-06-15T04:22:22.201Z,63.48
2023-06-15T04:23:24.456Z,63.46
2023-06-15T04:24:27.671Z,63.32
2023-06-15T04:25:30.370Z,63.16
2023-06-15T04:26:34.210Z,63.12
2023-06-15T04:27:36.537Z,63.20
2023-06-15T04:28:39.778Z,63.43
2023-06-15T04:29:46.723Z,63.48
2023-06-15T04:30:56.217Z,63.37
2023-06-15T04:31:58.841Z,63.47
2023-06-15T04:33:01.977Z,63.40
2023-06-15T04:34:05.927Z,63.48
2023-06-15T04:35:09.421Z,63.48
2023-06-15T04:36:13.425Z,63.53
2023-06-15T04:37:20.045Z,63.63
2023-06-15T04:38:22.304Z,63.59
2023-06-15T04:39:26.843Z,63.64
2023-06-15T04:40:29.157Z,63.50
2023-06-15T04:41:32.465Z,63.82
2023-06-15T04:42:34.741Z,63.63
2023-06-15T04:43:37.892Z,63.72
2023-06-15T04:44:40.036Z,63.73
2023-06-15T04:45:43.116Z,63.67
2023-06-15T04:46:47.727Z,63.76
2023-06-15T04:47:50.938Z,63.84
2023-06-15T04:48:53.190Z,64.00
2023-06-15T04:49:56.416Z,64.24
2023-06-15T04:50:58.814Z,64.05
2023-06-15T04:52:02.808Z,64.05
2023-06-15T04:53:06.350Z,64.13
2023-06-15T04:54:09.702Z,64.22
2023-06-15T04:55:13.194Z,64.34
2023-06-15T04:56:16.380Z,64.39
2023-06-15T04:57:18.530Z,64.32
2023-06-15T04:58:21.710Z,64.49
2023-06-15T04:59:23.889Z,64.68
2023-06-15T05:00:27.141Z,64.39
2023-06-15T05:01:29.370Z,64.00
2023-06-15T05:02:32.540Z,64.24
2023-06-15T05:03:35.379Z,64.15
2023-06-15T05:04:38.692Z,63.93
2023-06-15T05:05:41.025Z,64.37
2023-06-15T05:06:44.345Z,64.32
2023-06-15T05:07:46.591Z,64.38
2023-06-15T05:08:52.209Z,64.46
2023-06-15T05:09:55.179Z,64.58
2023-06-15T05:10:58.494Z,64.41
2023-06-15T05:12:02.433Z,64.67
2023-06-15T05:13:04.695Z,64.79
2023-06-15T05:14:07.900Z,64.63
2023-06-15T05:15:11.591Z,64.64
2023-06-15T05:16:14.039Z,64.53
2023-06-15T05:17:17.245Z,64.44
2023-06-15T05:18:20.534Z,64.42
2023-06-15T05:19:24.079Z,64.38
2023-06-15T05:20:26.215Z,64.30
2023-06-15T05:21:29.353Z,64.26
2023-06-15T05:22:31.500Z,64.32
2023-06-15T05:23:34.739Z,64.26
2023-06-15T05:24:38.317Z,64.31
2023-06-15T05:25:44.332Z,64.38
2023-06-15T05:26:46.551Z,64.47
2023-06-15T05:27:50.402Z,64.55
2023-06-15T05:28:52.740Z,64.67
2023-06-15T05:29:55.998Z,64.88
2023-06-15T05:30:58.392Z,64.81
2023-06-15T05:32:02.073Z,64.78
2023-06-15T05:33:04.524Z,65.06
2023-06-15T05:34:07.907Z,65.29
2023-06-15T05:35:11.687Z,65.11
2023-06-15T05:36:31.628Z,64.93
2023-06-15T05:37:40.504Z,64.45
2023-06-15T05:38:42.728Z,64.29
2023-06-15T05:39:48.424Z,64.39
2023-06-15T05:40:51.704Z,64.32
2023-06-15T05:41:55.044Z,64.22
2023-06-15T05:42:58.385Z,63.89
2023-06-15T05:44:00.809Z,63.85
2023-06-15T05:45:04.555Z,63.43
2023-06-15T05:46:06.803Z,63.19
2023-06-15T05:47:12.097Z,63.12
2023-06-15T05:48:17.632Z,62.87
2023-06-15T05:49:20.992Z,62.83
2023-06-15T05:50:23.302Z,63.26
2023-06-15T05:51:26.406Z,62.93
2023-06-15T05:52:30.284Z,62.50
2023-06-15T05:53:34.089Z,62.50
2023-06-15T05:54:36.354Z,62.61
2023-06-15T05:55:43.558Z,62.45
2023-06-15T05:56:47.693Z,62.08
2023-06-15T05:57:50.949Z,61.56
2023-06-15T05:58:54.072Z,61.17
2023-06-15T05:59:57.252Z,61.01
2023-06-15T06:00:59.601Z,61.01
2023-06-15T06:02:03.103Z,61.69
2023-06-15T06:03:05.725Z,62.24
2023-06-15T06:04:09.056Z,61.90
2023-06-15T06:05:12.258Z,61.95
2023-06-15T06:06:14.809Z,61.75
2023-06-15T06:07:18.040Z,61.47
2023-06-15T06:08:22.492Z,61.58
2023-06-15T06:09:27.969Z,61.32
2023-06-15T06:10:30.182Z,61.21
2023-06-15T06:11:34.707Z,61.12
2023-06-15T06:12:36.877Z,60.88
2023-06-15T06:13:40.153Z,60.83
2023-06-15T06:14:42.348Z,60.61
2023-06-15T06:15:45.809Z,60.61
2023-06-15T06:16:48.034Z,60.89
2023-06-15T06:18:07.815Z,60.62
2023-06-15T06:19:11.525Z,59.92
2023-06-15T06:20:15.144Z,59.76
2023-06-15T06:21:17.377Z,60.24
2023-06-15T06:22:20.688Z,60.84
2023-06-15T06:23:23.197Z,60.65
2023-06-15T06:24:26.406Z,60.25
2023-06-15T06:25:28.582Z,60.18
2023-06-15T06:26:31.780Z,60.12
2023-06-15T06:27:35.317Z,59.78
2023-06-15T06:28:38.468Z,60.04
2023-06-15T06:29:41.978Z,60.13
2023-06-15T06:30:45.179Z,59.95
2023-06-15T06:31:47.412Z,59.93
2023-06-15T06:32:50.711Z,59.62
2023-06-15T06:33:53.106Z,59.74
2023-06-15T06:34:56.433Z,59.39
2023-06-15T06:35:59.644Z,59.15
2023-06-15T06:37:02.793Z,59.73
2023-06-15T06:38:05.139Z,59.85
2023-06-15T06:39:08.319Z,59.56
2023-06-15T06:40:11.149Z,59.03
2023-06-15T06:41:14.306Z,59.01
2023-06-15T06:42:16.696Z,59.11
2023-06-15T06:43:21.269Z,58.99
2023-06-15T06:44:23.476Z,59.31
2023-06-15T06:45:30.105Z,59.78
2023-06-15T06:46:32.770Z,59.52
2023-06-15T06:47:36.175Z,58.16
2023-06-15T06:48:39.205Z,57.75
2023-06-15T06:49:42.369Z,58.18
2023-06-15T06:50:44.594Z,58.16
2023-06-15T06:51:47.719Z,58.19
2023-06-15T06:52:50.904Z,58.26
2023-06-15T06:53:54.503Z,59.02
2023-06-15T06:54:56.724Z,58.31
2023-06-15T06:55:59.866Z,58.24
2023-06-15T06:57:02.726Z,57.63
2023-06-15T06:58:06.425Z,57.78
2023-06-15T06:59:11.502Z,57.84
2023-06-15T07:00:14.855Z,57.58
2023-06-15T07:01:18.020Z,57.77
2023-06-15T07:02:20.830Z,57.20
2023-06-15T07:03:25.192Z,57.59
2023-06-15T07:04:31.672Z,57.63
2023-06-15T07:05:34.065Z,57.53
2023-06-15T07:06:37.374Z,57.86
2023-06-15T07:07:40.016Z,57.41
2023-06-15T07:08:43.517Z,57.64
2023-06-15T07:09:45.787Z,57.96
2023-06-15T07:10:48.969Z,57.32
2023-06-15T07:11:51.175Z,57.01
2023-06-15T07:12:57.094Z,56.97
2023-06-15T07:13:59.508Z,56.93
2023-06-15T07:15:04.113Z,56.79
2023-06-15T07:16:07.613Z,56.74
2023-06-15T07:17:10.822Z,57.74
2023-06-15T07:18:15.809Z,57.38
2023-06-15T07:19:19.241Z,56.80
2023-06-15T07:20:21.438Z,56.76
2023-06-15T07:21:24.649Z,56.38
2023-06-15T07:22:26.830Z,55.99
2023-06-15T07:23:38.326Z,55.74
2023-06-15T07:24:52.068Z,54.74
2023-06-15T07:25:55.534Z,56.13
2023-06-15T07:27:00.280Z,56.99
2023-06-15T07:28:02.631Z,56.92
2023-06-15T07:29:05.960Z,56.18
2023-06-15T07:30:11.388Z,56.20
2023-06-15T07:31:14.516Z,55.63
2023-06-15T07:32:17.023Z,55.79
2023-06-15T07:33:20.947Z,55.14
2023-06-15T07:34:25.179Z,55.55
2023-06-15T07:35:28.410Z,55.15
2023-06-15T07:36:30.879Z,55.48
2023-06-15T07:37:34.103Z,55.38
2023-06-15T07:38:37.481Z,54.81
2023-06-15T07:39:40.702Z,54.39
2023-06-15T07:40:43.176Z,54.07
2023-06-15T07:41:46.370Z,54.34
2023-06-15T07:42:48.564Z,54.34
2023-06-15T07:43:51.760Z,54.48
2023-06-15T07:44:54.000Z,54.12
2023-06-15T07:45:58.654Z,53.46
2023-06-15T07:47:00.941Z,53.63
2023-06-15T07:48:05.469Z,53.70
2023-06-15T07:49:08.323Z,53.57
2023-06-15T07:50:11.933Z,53.57
2023-06-15T07:51:24.173Z,53.80
2023-06-15T07:52:31.861Z,54.20
2023-06-15T07:53:34.422Z,54.36
2023-06-15T07:54:37.672Z,54.18
2023-06-15T07:55:39.935Z,54.17
2023-06-15T07:56:43.539Z,53.56
2023-06-15T07:57:46.884Z,53.18
2023-06-15T07:58:49.260Z,53.20
2023-06-15T07:59:52.492Z,53.28
2023-06-15T08:00:55.737Z,53.02
2023-06-15T08:01:59.347Z,52.43
2023-06-15T08:03:02.796Z,53.24
2023-06-15T08:04:06.825Z,53.32
2023-06-15T08:05:12.097Z,53.26
2023-06-15T08:06:17.338Z,53.02
2023-06-15T08:07:22.008Z,52.84
2023-06-15T08:08:24.153Z,52.77
2023-06-15T08:09:27.552Z,52.54
2023-06-15T08:10:30.841Z,52.17
2023-06-15T08:11:34.038Z,52.59
2023-06-15T08:12:37.343Z,52.88
2023-06-15T08:13:40.074Z,52.90
2023-06-15T08:14:43.286Z,52.12
2023-06-15T08:15:45.678Z,51.73
2023-06-15T08:16:49.645Z,51.76
2023-06-15T08:17:55.271Z,51.92
2023-06-15T08:18:58.449Z,52.02
2023-06-15T08:20:01.384Z,52.32
2023-06-15T08:21:04.599Z,50.88
2023-06-15T08:22:07.258Z,50.61
2023-06-15T08:23:10.353Z,51.18
2023-06-15T08:24:13.753Z,50.90
2023-06-15T08:25:17.113Z,51.56
2023-06-15T08:26:20.305Z,51.05
2023-06-15T08:27:22.480Z,50.37
2023-06-15T08:28:25.851Z,50.98
2023-06-15T08:29:28.065Z,49.96
2023-06-15T08:30:31.221Z,50.12
2023-06-15T08:31:38.563Z,50.32
2023-06-15T08:32:42.683Z,50.76
2023-06-15T08:33:46.338Z,50.47
2023-06-15T08:34:50.382Z,49.46
2023-06-15T08:35:52.710Z,49.35
2023-06-15T08:36:56.260Z,49.17
2023-06-15T08:37:58.442Z,47.59
2023-06-15T08:39:01.864Z,47.10
2023-06-15T08:40:07.504Z,46.94
2023-06-15T08:41:13.751Z,47.15
2023-06-15T08:42:19.370Z,48.16
2023-06-15T08:43:21.890Z,48.81
2023-06-15T08:44:25.233Z,48.72
2023-06-15T08:45:34.094Z,49.17
2023-06-15T08:46:38.239Z,48.88
2023-06-15T08:47:41.338Z,47.81
2023-06-15T08:48:49.478Z,47.63
2023-06-15T08:49:54.466Z,47.66
2023-06-15T08:50:56.731Z,47.12
2023-06-15T08:52:01.122Z,46.94
2023-06-15T08:53:03.585Z,45.66
2023-06-15T08:54:09.653Z,45.07
2023-06-15T08:55:17.203Z,44.90
2023-06-15T08:56:20.927Z,45.25
2023-06-15T08:57:23.311Z,44.94
2023-06-15T08:58:26.700Z,43.69
2023-06-15T08:59:30.462Z,44.25
2023-06-15T09:00:33.775Z,45.69
2023-06-15T09:01:41.653Z,46.44
2023-06-15T09:02:47.683Z,46.14
2023-06-15T09:03:56.413Z,46.34
2023-06-15T09:04:59.957Z,46.85
2023-06-15T09:06:02.473Z,46.62
2023-06-15T09:07:06.575Z,46.49
2023-06-15T09:08:09.213Z,46.40
2023-06-15T09:09:13.512Z,46.85
2023-06-15T09:10:17.206Z,45.67
2023-06-15T09:11:21.192Z,44.86
2023-06-15T09:12:24.743Z,45.88
2023-06-15T09:13:32.671Z,45.75
2023-06-15T09:14:39.988Z,43.32
2023-06-15T09:15:46.873Z,42.19
2023-06-15T09:16:53.598Z,41.38
2023-06-15T09:17:56.955Z,42.09
2023-06-15T09:19:02.413Z,43.25
2023-06-15T09:20:06.654Z,43.67
2023-06-15T09:21:13.425Z,44.19
2023-06-15T09:22:16.814Z,44.53
2023-06-15T09:23:19.276Z,44.01
2023-06-15T09:24:25.655Z,42.92
2023-06-15T09:25:30.140Z,41.87
2023-06-15T09:26:33.627Z,42.31
2023-06-15T09:27:36.012Z,42.60
2023-06-15T09:28:46.862Z,43.50
2023-06-15T09:30:20.565Z,43.35
2023-06-15T09:31:31.720Z,42.78
2023-06-15T09:32:35.691Z,42.98
2023-06-15T09:33:38.918Z,42.68
2023-06-15T09:34:42.743Z,41.98
2023-06-15T09:35:58.548Z,43.09
2023-06-15T09:37:01.544Z,43.00
2023-06-15T09:38:05.320Z,44.38
2023-06-15T09:39:10.417Z,42.56
2023-06-15T09:40:14.464Z,41.27
2023-06-15T09:41:16.921Z,41.61
2023-06-15T09:42:20.837Z,42.27
2023-06-15T09:43:23.772Z,41.45
2023-06-15T09:44:27.804Z,40.49
2023-06-15T09:45:30.573Z,40.91
2023-06-15T09:46:33.775Z,39.81
2023-06-15T09:47:36.367Z,38.16
2023-06-15T09:48:40.302Z,38.89
2023-06-15T09:49:45.967Z,40.04
2023-06-15T09:50:55.210Z,40.90
2023-06-15T09:51:57.671Z,40.34
2023-06-15T09:53:02.687Z,40.39
2023-06-15T09:54:05.793Z,41.33
2023-06-15T09:55:10.609Z,41.38
2023-06-15T09:56:28.688Z,41.50
2023-06-15T09:57:34.121Z,41.16
2023-06-15T09:58:36.808Z,40.81
2023-06-15T09:59:41.377Z,40.93
2023-06-15T10:00:43.981Z,41.36
2023-06-15T10:01:49.657Z,41.26
2023-06-15T10:02:54.845Z,40.59
2023-06-15T10:03:59.145Z,39.54
2023-06-15T10:05:04.759Z,38.79
2023-06-15T10:06:14.434Z,38.38
2023-06-15T10:07:21.367Z,38.97
2023-06-15T10:08:27.373Z,37.95
2023-06-15T10:09:33.614Z,39.33
2023-06-15T10:10:38.805Z,38.91
2023-06-15T10:11:43.036Z,38.30
2023-06-15T10:12:51.059Z,38.65
2023-06-15T10:13:56.174Z,38.57
2023-06-15T10:15:05.961Z,38.29
2023-06-15T10:16:11.925Z,40.23
2023-06-15T10:17:17.470Z,40.93
2023-06-15T10:18:23.464Z,39.58
2023-06-15T10:19:28.978Z,39.14
2023-06-15T10:20:34.770Z,39.01
2023-06-15T10:21:40.021Z,38.66
2023-06-15T10:22:47.658Z,38.60
2023-06-15T10:23:55.438Z,37.72
2023-06-15T10:24:59.129Z,38.98
2023-06-15T10:26:02.076Z,38.37
2023-06-15T10:27:08.574Z,38.84
2023-06-15T10:28:14.133Z,38.40
2023-06-15T10:29:21.513Z,37.80
2023-06-15T10:30:32.630Z,37.87
2023-06-15T10:31:43.697Z,37.92
2023-06-15T10:32:52.465Z,37.53
2023-06-15T10:34:00.399Z,37.94
2023-06-15T10:35:08.766Z,37.66
2023-06-15T10:36:17.157Z,37.55
2023-06-15T10:37:26.119Z,38.01
2023-06-15T10:38:38.081Z,37.93
2023-06-15T10:39:45.657Z,37.18
2023-06-15T10:40:50.885Z,37.22
2023-06-15T10:41:54.272Z,37.38
2023-06-15T10:42:59.261Z,37.40
2023-06-15T10:44:02.734Z,36.77
2023-06-15T10:45:30.607Z,37.24
2023-06-15T10:46:34.932Z,37.27
2023-06-15T10:47:50.124Z,36.80
2023-06-15T10:48:54.486Z,36.55
2023-06-15T10:49:58.470Z,36.80
2023-06-15T10:51:06.688Z,37.30
2023-06-15T10:52:15.224Z,36.66
2023-06-15T10:53:25.154Z,36.32
2023-06-15T10:54:29.627Z,38.00
2023-06-15T10:55:32.786Z,34.68
2023-06-15T10:56:36.216Z,34.42
2023-06-15T10:57:38.614Z,34.35
2023-06-15T10:58:54.698Z,35.18
2023-06-15T10:59:58.630Z,36.02
2023-06-15T11:01:09.863Z,35.32
2023-06-15T11:02:51.193Z,35.38
2023-06-15T11:03:55.421Z,35.22
2023-06-15T11:05:10.826Z,35.88
2023-06-15T11:06:19.435Z,36.06
2023-06-15T11:07:29.913Z,36.94
2023-06-15T11:08:35.621Z,36.93
2023-06-15T11:09:42.523Z,37.66
2023-06-15T11:10:44.991Z,37.76
2023-06-15T11:11:48.268Z,36.94
2023-06-15T11:13:00.325Z,35.60
2023-06-15T11:14:07.908Z,35.17
2023-06-15T11:15:16.446Z,34.93
2023-06-15T11:16:26.846Z,36.09
2023-06-15T11:17:30.250Z,35.76
2023-06-15T11:18:32.614Z,35.90
2023-06-15T11:19:44.467Z,36.58
2023-06-15T11:21:00.970Z,37.12
2023-06-15T11:22:08.256Z,35.99
2023-06-15T11:23:13.611Z,36.21
2023-06-15T11:24:19.040Z,36.18
2023-06-15T11:25:29.542Z,36.33
2023-06-15T11:26:50.326Z,37.24
2023-06-15T11:27:56.651Z,36.95
2023-06-15T11:29:03.786Z,35.51
2023-06-15T11:30:09.708Z,36.17
2023-06-15T11:31:13.324Z,36.24
2023-06-15T11:32:15.634Z,36.66
2023-06-15T11:33:28.243Z,36.75
2023-06-15T11:34:31.855Z,37.54
2023-06-15T11:35:34.012Z,36.36
2023-06-15T11:36:38.902Z,36.13
2023-06-15T11:37:42.093Z,37.06
2023-06-15T11:38:45.629Z,37.07
2023-06-15T11:39:48.881Z,38.18
2023-06-15T11:40:51.281Z,36.92
2023-06-15T11:41:57.452Z,36.88
2023-06-15T11:43:00.168Z,36.89
2023-06-15T11:44:03.465Z,35.76
2023-06-15T11:45:06.618Z,35.32
2023-06-15T11:46:13.628Z,34.99
2023-06-15T11:47:15.793Z,34.60
2023-06-15T11:48:19.087Z,34.55
2023-06-15T11:49:22.840Z,36.30
2023-06-15T11:50:25.215Z,37.25
2023-06-15T11:51:28.528Z,36.55
2023-06-15T11:52:31.702Z,36.57
2023-06-15T11:53:34.484Z,36.29
2023-06-15T11:54:50.133Z,35.36
2023-06-15T11:55:56.052Z,35.86
2023-06-15T11:56:58.687Z,35.87
2023-06-15T11:58:01.989Z,36.28
2023-06-15T11:59:04.384Z,35.99
2023-06-15T12:00:09.378Z,36.12
2023-06-15T12:01:13.232Z,34.78
2023-06-15T12:02:18.090Z,34.83
2023-06-15T12:03:20.512Z,34.79
2023-06-15T12:04:23.858Z,35.02
2023-06-15T12:05:26.364Z,33.87
2023-06-15T12:06:31.171Z,35.42
2023-06-15T12:07:38.547Z,36.35
2023-06-15T12:08:42.731Z,35.83
2023-06-15T12:09:47.441Z,34.34
2023-06-15T12:10:50.093Z,34.85
2023-06-15T12:11:55.443Z,33.51
2023-06-15T12:12:59.553Z,33.19
2023-06-15T12:14:03.050Z,34.31
2023-06-15T12:15:08.067Z,34.90
2023-06-15T12:16:12.655Z,35.18
2023-06-15T12:17:16.806Z,34.48
2023-06-15T12:18:20.379Z,34.41
2023-06-15T12:19:23.524Z,34.94
2023-06-15T12:20:28.694Z,35.22
2023-06-15T12:21:33.694Z,35.74
2023-06-15T12:22:37.958Z,35.24
2023-06-15T12:23:41.533Z,35.18
2023-06-15T12:24:43.764Z,35.32
2023-06-15T12:25:49.589Z,35.72
2023-06-15T12:26:52.881Z,36.14
2023-06-15T12:27:56.396Z,35.90
2023-06-15T12:28:58.571Z,35.65
2023-06-15T12:30:15.446Z,34.14
2023-06-15T12:31:17.797Z,35.12
2023-06-15T12:32:24.827Z,35.52
2023-06-15T12:33:28.816Z,35.67
2023-06-15T12:34:32.493Z,34.42
2023-06-15T12:35:38.779Z,34.26
2023-06-15T12:36:42.601Z,34.99
2023-06-15T12:37:50.501Z,35.23
2023-06-15T12:38:54.223Z,35.40
2023-06-15T12:39:56.534Z,35.65
2023-06-15T12:41:01.984Z,35.40
2023-06-15T12:42:05.585Z,35.61
2023-06-15T12:43:08.141Z,35.33
2023-06-15T12:44:11.585Z,34.99
2023-06-15T12:45:14.911Z,35.47
2023-06-15T12:46:18.495Z,34.97
2023-06-15T12:47:20.753Z,34.32
2023-06-15T12:48:24.260Z,34.29
2023-06-15T12:49:26.473Z,32.92
2023-06-15T12:50:31.034Z,32.78
2023-06-15T12:51:34.295Z,32.94
2023-06-15T12:52:36.457Z,33.36
2023-06-15T12:53:39.679Z,33.03
2023-06-15T12:54:41.837Z,33.52
2023-06-15T12:55:45.452Z,33.09
2023-06-15T12:56:50.098Z,34.02
2023-06-15T12:57:55.533Z,33.90
2023-06-15T12:58:59.115Z,34.72
2023-06-15T13:00:01.291Z,35.32
2023-06-15T13:01:05.059Z,34.20
2023-06-15T13:02:08.573Z,34.89
2023-06-15T13:03:13.167Z,35.06
2023-06-15T13:04:15.710Z,34.53
2023-06-15T13:05:19.423Z,34.75
2023-06-15T13:06:22.649Z,34.70
2023-06-15T13:07:25.623Z,34.66
2023-06-15T13:08:28.961Z,33.71
2023-06-15T13:09:31.142Z,33.73
2023-06-15T13:10:35.504Z,32.75
2023-06-15T13:11:39.289Z,32.43
2023-06-15T13:12:44.422Z,32.88
2023-06-15T13:13:47.650Z,32.42
2023-06-15T13:14:49.885Z,32.23
2023-06-15T13:15:53.924Z,32.58
2023-06-15T13:16:56.641Z,33.50
2023-06-15T13:17:59.913Z,33.62
2023-06-15T13:19:03.687Z,34.24
2023-06-15T13:20:08.384Z,34.59
2023-06-15T13:21:12.876Z,35.06
2023-06-15T13:22:15.635Z,34.98
2023-06-15T13:23:18.867Z,34.61
2023-06-15T13:24:21.773Z,33.84
2023-06-15T13:25:24.988Z,33.17
2023-06-15T13:26:28.244Z,34.28
2023-06-15T13:27:30.603Z,34.80
2023-06-15T13:28:35.300Z,33.68
2023-06-15T13:29:37.561Z,33.19
2023-06-15T13:30:40.733Z,34.32
2023-06-15T13:31:42.969Z,34.08
2023-06-15T13:32:47.934Z,33.77
2023-06-15T13:33:50.285Z,33.82
2023-06-15T13:34:53.445Z,33.59
2023-06-15T13:35:58.472Z,33.62
2023-06-15T13:37:00.796Z,32.86
2023-06-15T13:38:03.926Z,32.66
2023-06-15T13:39:07.068Z,34.18
2023-06-15T13:40:11.811Z,33.77
2023-06-15T13:41:15.076Z,31.59
2023-06-15T13:42:17.270Z,31.35
2023-06-15T13:43:20.921Z,31.86
2023-06-15T13:44:24.585Z,32.04
2023-06-15T13:45:27.887Z,31.81
2023-06-15T13:46:31.668Z,32.53
2023-06-15T13:47:36.036Z,33.48
2023-06-15T13:48:38.270Z,31.79
2023-06-15T13:49:41.757Z,30.87
2023-06-15T13:50:44.935Z,31.90